sensor_id;sensor_type;location;lat;lon;timestamp;P1;durP1;ratioP1;P2;durP2;ratioP2
239;SDS011;104;53.590;10.004;2022-09-09T00:01:58;5.90;;;5.50;;
239;SDS011;104;53.590;10.004;2022-09-09T00:04:27;11.40;;;7.03;;
239;SDS011;104;53.590;10.004;2022-09-09T00:06:58;8.80;;;6.77;;
239;SDS011;104;53.590;10.004;2022-09-09T00:09:27;8.87;;;6.23;;
239;SDS011;104;53.590;10.004;2022-09-09T00:11:58;7.33;;;6.03;;
239;SDS011;104;53.590;10.004;2022-09-09T00:14:31;7.10;;;6.70;;
239;SDS011;104;53.590;10.004;2022-09-09T00:17:02;10.00;;;7.30;;
239;SDS011;104;53.590;10.004;2022-09-09T00:19:32;8.27;;;6.70;;
239;SDS011;104;53.590;10.004;2022-09-09T00:22:04;7.60;;;6.33;;
239;SDS011;104;53.590;10.004;2022-09-09T00:24:37;10.37;;;6.40;;
239;SDS011;104;53.590;10.004;2022-09-09T00:27:08;7.53;;;5.77;;
239;SDS011;104;53.590;10.004;2022-09-09T00:29:39;7.63;;;5.90;;
239;SDS011;104;53.590;10.004;2022-09-09T00:32:11;9.10;;;6.80;;
239;SDS011;104;53.590;10.004;2022-09-09T00:34:46;12.37;;;6.90;;
239;SDS011;104;53.590;10.004;2022-09-09T00:37:13;10.87;;;7.70;;
239;SDS011;104;53.590;10.004;2022-09-09T00:39:41;10.03;;;7.30;;
239;SDS011;104;53.590;10.004;2022-09-09T00:42:13;7.50;;;7.10;;
239;SDS011;104;53.590;10.004;2022-09-09T00:44:45;10.47;;;7.77;;
239;SDS011;104;53.590;10.004;2022-09-09T00:47:20;8.60;;;7.30;;
239;SDS011;104;53.590;10.004;2022-09-09T00:49:58;10.70;;;7.47;;
239;SDS011;104;53.590;10.004;2022-09-09T00:52:30;9.37;;;7.67;;
239;SDS011;104;53.590;10.004;2022-09-09T00:55:02;10.33;;;8.20;;
239;SDS011;104;53.590;10.004;2022-09-09T00:57:32;8.20;;;7.83;;
239;SDS011;104;53.590;10.004;2022-09-09T01:00:15;9.20;;;8.03;;
239;SDS011;104;53.590;10.004;2022-09-09T01:02:46;10.20;;;8.50;;
239;SDS011;104;53.590;10.004;2022-09-09T01:05:16;9.37;;;8.27;;
239;SDS011;104;53.590;10.004;2022-09-09T01:07:47;8.80;;;6.90;;
239;SDS011;104;53.590;10.004;2022-09-09T01:10:17;11.57;;;7.73;;
239;SDS011;104;53.590;10.004;2022-09-09T01:12:49;14.53;;;8.10;;
239;SDS011;104;53.590;10.004;2022-09-09T01:15:20;8.87;;;8.10;;
239;SDS011;104;53.590;10.004;2022-09-09T01:17:51;13.37;;;7.40;;
239;SDS011;104;53.590;10.004;2022-09-09T01:20:20;11.57;;;9.43;;
239;SDS011;104;53.590;10.004;2022-09-09T01:22:52;20.40;;;8.90;;
239;SDS011;104;53.590;10.004;2022-09-09T01:25:26;13.47;;;9.30;;
239;SDS011;104;53.590;10.004;2022-09-09T01:27:56;10.50;;;9.43;;
239;SDS011;104;53.590;10.004;2022-09-09T01:30:25;10.57;;;8.97;;
239;SDS011;104;53.590;10.004;2022-09-09T01:32:54;17.67;;;10.10;;
239;SDS011;104;53.590;10.004;2022-09-09T01:35:27;12.43;;;8.60;;
239;SDS011;104;53.590;10.004;2022-09-09T01:37:55;10.13;;;8.83;;
239;SDS011;104;53.590;10.004;2022-09-09T01:40:23;9.77;;;8.67;;
239;SDS011;104;53.590;10.004;2022-09-09T01:42:50;11.47;;;8.90;;
239;SDS011;104;53.590;10.004;2022-09-09T01:45:19;11.03;;;8.57;;
239;SDS011;104;53.590;10.004;2022-09-09T01:47:48;15.67;;;8.93;;
239;SDS011;104;53.590;10.004;2022-09-09T01:50:16;10.87;;;7.80;;
239;SDS011;104;53.590;10.004;2022-09-09T01:52:43;11.70;;;9.80;;
239;SDS011;104;53.590;10.004;2022-09-09T01:55:11;10.73;;;8.80;;
239;SDS011;104;53.590;10.004;2022-09-09T01:57:39;10.20;;;8.93;;
239;SDS011;104;53.590;10.004;2022-09-09T02:00:10;13.67;;;10.50;;
239;SDS011;104;53.590;10.004;2022-09-09T02:02:41;13.13;;;9.80;;
239;SDS011;104;53.590;10.004;2022-09-09T02:05:17;15.60;;;10.53;;
239;SDS011;104;53.590;10.004;2022-09-09T02:07:46;18.47;;;11.20;;
239;SDS011;104;53.590;10.004;2022-09-09T02:10:16;11.67;;;10.10;;
239;SDS011;104;53.590;10.004;2022-09-09T02:12:45;14.40;;;11.40;;
239;SDS011;104;53.590;10.004;2022-09-09T02:15:16;12.33;;;10.63;;
239;SDS011;104;53.590;10.004;2022-09-09T02:17:45;20.13;;;10.27;;
239;SDS011;104;53.590;10.004;2022-09-09T02:20:14;15.47;;;12.03;;
239;SDS011;104;53.590;10.004;2022-09-09T02:22:42;11.50;;;10.40;;
239;SDS011;104;53.590;10.004;2022-09-09T02:25:10;13.73;;;9.70;;
239;SDS011;104;53.590;10.004;2022-09-09T02:27:39;14.33;;;9.20;;
239;SDS011;104;53.590;10.004;2022-09-09T02:30:07;16.50;;;10.07;;
239;SDS011;104;53.590;10.004;2022-09-09T02:32:35;10.80;;;9.30;;
239;SDS011;104;53.590;10.004;2022-09-09T02:35:07;18.00;;;10.17;;
239;SDS011;104;53.590;10.004;2022-09-09T02:37:36;10.90;;;9.90;;
239;SDS011;104;53.590;10.004;2022-09-09T02:40:04;20.77;;;10.10;;
239;SDS011;104;53.590;10.004;2022-09-09T02:42:32;9.47;;;9.03;;
239;SDS011;104;53.590;10.004;2022-09-09T02:45:05;13.87;;;10.27;;
239;SDS011;104;53.590;10.004;2022-09-09T02:47:34;12.13;;;10.40;;
239;SDS011;104;53.590;10.004;2022-09-09T02:50:04;11.50;;;9.90;;
239;SDS011;104;53.590;10.004;2022-09-09T02:52:36;11.83;;;10.20;;
239;SDS011;104;53.590;10.004;2022-09-09T02:55:06;9.17;;;8.27;;
239;SDS011;104;53.590;10.004;2022-09-09T02:57:35;9.97;;;9.30;;
239;SDS011;104;53.590;10.004;2022-09-09T03:00:03;12.23;;;9.90;;
239;SDS011;104;53.590;10.004;2022-09-09T03:02:31;12.83;;;10.90;;
239;SDS011;104;53.590;10.004;2022-09-09T03:04:58;12.23;;;9.63;;
239;SDS011;104;53.590;10.004;2022-09-09T03:07:25;12.30;;;10.53;;
239;SDS011;104;53.590;10.004;2022-09-09T03:09:54;12.17;;;8.93;;
239;SDS011;104;53.590;10.004;2022-09-09T03:12:21;11.00;;;9.70;;
239;SDS011;104;53.590;10.004;2022-09-09T03:14:48;12.37;;;9.43;;
239;SDS011;104;53.590;10.004;2022-09-09T03:17:15;11.40;;;9.07;;
239;SDS011;104;53.590;10.004;2022-09-09T03:19:43;13.30;;;9.93;;
239;SDS011;104;53.590;10.004;2022-09-09T03:22:10;11.10;;;9.47;;
239;SDS011;104;53.590;10.004;2022-09-09T03:24:38;13.93;;;9.60;;
239;SDS011;104;53.590;10.004;2022-09-09T03:27:06;10.50;;;9.83;;
239;SDS011;104;53.590;10.004;2022-09-09T03:29:34;12.03;;;9.27;;
239;SDS011;104;53.590;10.004;2022-09-09T03:32:01;13.50;;;9.77;;
239;SDS011;104;53.590;10.004;2022-09-09T03:34:28;11.03;;;8.97;;
239;SDS011;104;53.590;10.004;2022-09-09T03:36:56;13.70;;;9.23;;
239;SDS011;104;53.590;10.004;2022-09-09T03:39:23;11.60;;;9.90;;
239;SDS011;104;53.590;10.004;2022-09-09T03:41:50;10.60;;;9.70;;
239;SDS011;104;53.590;10.004;2022-09-09T03:44:19;11.53;;;9.20;;
239;SDS011;104;53.590;10.004;2022-09-09T03:46:46;13.70;;;10.07;;
239;SDS011;104;53.590;10.004;2022-09-09T03:49:14;14.60;;;9.57;;
239;SDS011;104;53.590;10.004;2022-09-09T03:51:41;12.17;;;10.63;;
239;SDS011;104;53.590;10.004;2022-09-09T03:54:09;12.30;;;10.70;;
239;SDS011;104;53.590;10.004;2022-09-09T03:56:36;12.97;;;11.33;;
239;SDS011;104;53.590;10.004;2022-09-09T03:59:04;17.23;;;10.70;;
239;SDS011;104;53.590;10.004;2022-09-09T04:01:33;13.60;;;10.23;;
239;SDS011;104;53.590;10.004;2022-09-09T04:04:00;12.43;;;10.70;;
239;SDS011;104;53.590;10.004;2022-09-09T04:06:27;14.80;;;12.10;;
239;SDS011;104;53.590;10.004;2022-09-09T04:08:55;14.50;;;11.80;;
239;SDS011;104;53.590;10.004;2022-09-09T04:11:22;16.43;;;11.30;;
239;SDS011;104;53.590;10.004;2022-09-09T04:13:49;18.83;;;11.77;;
239;SDS011;104;53.590;10.004;2022-09-09T04:16:17;17.10;;;11.90;;
239;SDS011;104;53.590;10.004;2022-09-09T04:18:46;13.60;;;11.67;;
239;SDS011;104;53.590;10.004;2022-09-09T04:21:14;16.30;;;12.63;;
239;SDS011;104;53.590;10.004;2022-09-09T04:23:42;15.87;;;12.23;;
239;SDS011;104;53.590;10.004;2022-09-09T04:26:09;15.50;;;9.87;;
239;SDS011;104;53.590;10.004;2022-09-09T04:28:37;16.20;;;11.27;;
239;SDS011;104;53.590;10.004;2022-09-09T04:31:04;20.73;;;11.93;;
239;SDS011;104;53.590;10.004;2022-09-09T04:33:32;14.80;;;12.20;;
239;SDS011;104;53.590;10.004;2022-09-09T04:36:01;13.30;;;10.50;;
239;SDS011;104;53.590;10.004;2022-09-09T04:38:28;14.53;;;10.30;;
239;SDS011;104;53.590;10.004;2022-09-09T04:40:55;16.10;;;11.90;;
239;SDS011;104;53.590;10.004;2022-09-09T04:43:23;23.93;;;14.60;;
239;SDS011;104;53.590;10.004;2022-09-09T04:45:51;23.60;;;17.10;;
239;SDS011;104;53.590;10.004;2022-09-09T04:48:18;19.73;;;14.87;;
239;SDS011;104;53.590;10.004;2022-09-09T04:50:53;25.40;;;17.40;;
239;SDS011;104;53.590;10.004;2022-09-09T04:53:22;27.47;;;18.77;;
239;SDS011;104;53.590;10.004;2022-09-09T04:55:50;20.90;;;16.07;;
239;SDS011;104;53.590;10.004;2022-09-09T04:58:17;21.37;;;16.40;;
239;SDS011;104;53.590;10.004;2022-09-09T05:00:46;23.73;;;15.13;;
239;SDS011;104;53.590;10.004;2022-09-09T05:03:14;27.90;;;15.80;;
239;SDS011;104;53.590;10.004;2022-09-09T05:05:41;19.07;;;12.83;;
239;SDS011;104;53.590;10.004;2022-09-09T05:08:09;16.63;;;12.50;;
239;SDS011;104;53.590;10.004;2022-09-09T05:10:38;17.47;;;12.20;;
239;SDS011;104;53.590;10.004;2022-09-09T05:13:06;16.73;;;12.67;;
239;SDS011;104;53.590;10.004;2022-09-09T05:15:34;16.50;;;12.40;;
239;SDS011;104;53.590;10.004;2022-09-09T05:18:01;14.40;;;11.87;;
239;SDS011;104;53.590;10.004;2022-09-09T05:20:29;16.27;;;12.43;;
239;SDS011;104;53.590;10.004;2022-09-09T05:22:57;17.50;;;12.37;;
239;SDS011;104;53.590;10.004;2022-09-09T05:25:24;13.97;;;11.33;;
239;SDS011;104;53.590;10.004;2022-09-09T05:27:53;18.23;;;12.00;;
239;SDS011;104;53.590;10.004;2022-09-09T05:30:21;19.00;;;11.37;;
239;SDS011;104;53.590;10.004;2022-09-09T05:32:51;13.80;;;11.47;;
239;SDS011;104;53.590;10.004;2022-09-09T05:35:18;14.77;;;12.00;;
239;SDS011;104;53.590;10.004;2022-09-09T05:37:46;13.90;;;12.07;;
239;SDS011;104;53.590;10.004;2022-09-09T05:40:13;23.17;;;12.40;;
239;SDS011;104;53.590;10.004;2022-09-09T05:42:41;15.87;;;11.73;;
239;SDS011;104;53.590;10.004;2022-09-09T05:45:10;23.57;;;12.33;;
239;SDS011;104;53.590;10.004;2022-09-09T05:47:37;20.83;;;13.10;;
239;SDS011;104;53.590;10.004;2022-09-09T05:50:05;19.47;;;12.87;;
239;SDS011;104;53.590;10.004;2022-09-09T05:52:32;15.90;;;12.10;;
239;SDS011;104;53.590;10.004;2022-09-09T05:55:00;15.60;;;13.00;;
239;SDS011;104;53.590;10.004;2022-09-09T05:57:29;16.37;;;11.40;;
239;SDS011;104;53.590;10.004;2022-09-09T05:59:56;13.47;;;11.30;;
239;SDS011;104;53.590;10.004;2022-09-09T06:02:25;13.90;;;11.60;;
239;SDS011;104;53.590;10.004;2022-09-09T06:04:53;15.13;;;12.07;;
239;SDS011;104;53.590;10.004;2022-09-09T06:07:20;16.20;;;13.60;;
239;SDS011;104;53.590;10.004;2022-09-09T06:09:48;17.90;;;11.83;;
239;SDS011;104;53.590;10.004;2022-09-09T06:12:16;15.80;;;12.23;;
239;SDS011;104;53.590;10.004;2022-09-09T06:14:43;13.23;;;11.10;;
239;SDS011;104;53.590;10.004;2022-09-09T06:17:11;14.70;;;12.33;;
239;SDS011;104;53.590;10.004;2022-09-09T06:19:40;17.97;;;12.53;;
239;SDS011;104;53.590;10.004;2022-09-09T06:22:07;16.93;;;12.10;;
239;SDS011;104;53.590;10.004;2022-09-09T06:24:37;17.27;;;12.00;;
239;SDS011;104;53.590;10.004;2022-09-09T06:27:04;23.13;;;12.70;;
239;SDS011;104;53.590;10.004;2022-09-09T06:29:32;18.20;;;12.20;;
239;SDS011;104;53.590;10.004;2022-09-09T06:31:59;20.87;;;12.90;;
239;SDS011;104;53.590;10.004;2022-09-09T06:34:27;18.10;;;12.60;;
239;SDS011;104;53.590;10.004;2022-09-09T06:36:56;24.80;;;13.60;;
239;SDS011;104;53.590;10.004;2022-09-09T06:39:24;26.80;;;12.43;;
239;SDS011;104;53.590;10.004;2022-09-09T06:41:51;17.50;;;12.60;;
239;SDS011;104;53.590;10.004;2022-09-09T06:44:19;20.37;;;13.30;;
239;SDS011;104;53.590;10.004;2022-09-09T06:46:47;20.23;;;13.73;;
239;SDS011;104;53.590;10.004;2022-09-09T06:49:15;15.60;;;11.80;;
239;SDS011;104;53.590;10.004;2022-09-09T06:51:42;19.47;;;12.57;;
239;SDS011;104;53.590;10.004;2022-09-09T06:54:11;19.60;;;13.47;;
239;SDS011;104;53.590;10.004;2022-09-09T06:56:39;24.33;;;13.30;;
239;SDS011;104;53.590;10.004;2022-09-09T06:59:07;18.00;;;12.90;;
239;SDS011;104;53.590;10.004;2022-09-09T07:01:35;21.07;;;13.50;;
239;SDS011;104;53.590;10.004;2022-09-09T07:04:03;18.37;;;12.80;;
239;SDS011;104;53.590;10.004;2022-09-09T07:06:33;21.97;;;12.33;;
239;SDS011;104;53.590;10.004;2022-09-09T07:09:02;17.40;;;12.20;;
239;SDS011;104;53.590;10.004;2022-09-09T07:11:32;12.40;;;10.87;;
239;SDS011;104;53.590;10.004;2022-09-09T07:13:59;13.53;;;11.30;;
239;SDS011;104;53.590;10.004;2022-09-09T07:16:27;15.17;;;10.80;;
239;SDS011;104;53.590;10.004;2022-09-09T07:18:54;24.40;;;11.47;;
239;SDS011;104;53.590;10.004;2022-09-09T07:21:23;16.50;;;10.67;;
239;SDS011;104;53.590;10.004;2022-09-09T07:23:51;16.20;;;10.47;;
239;SDS011;104;53.590;10.004;2022-09-09T07:26:19;16.73;;;11.03;;
239;SDS011;104;53.590;10.004;2022-09-09T07:28:48;15.17;;;9.70;;
239;SDS011;104;53.590;10.004;2022-09-09T07:31:16;11.70;;;9.50;;
239;SDS011;104;53.590;10.004;2022-09-09T07:33:43;12.60;;;10.37;;
239;SDS011;104;53.590;10.004;2022-09-09T07:36:12;14.50;;;10.67;;
239;SDS011;104;53.590;10.004;2022-09-09T07:38:40;10.77;;;8.80;;
239;SDS011;104;53.590;10.004;2022-09-09T07:41:10;14.63;;;10.53;;
239;SDS011;104;53.590;10.004;2022-09-09T07:43:37;12.40;;;9.93;;
239;SDS011;104;53.590;10.004;2022-09-09T07:46:07;11.67;;;10.37;;
239;SDS011;104;53.590;10.004;2022-09-09T07:48:35;12.07;;;10.50;;
239;SDS011;104;53.590;10.004;2022-09-09T07:51:03;13.70;;;11.07;;
239;SDS011;104;53.590;10.004;2022-09-09T07:53:32;16.27;;;10.40;;
239;SDS011;104;53.590;10.004;2022-09-09T07:56:02;14.20;;;10.30;;
239;SDS011;104;53.590;10.004;2022-09-09T07:58:29;12.80;;;10.40;;
239;SDS011;104;53.590;10.004;2022-09-09T08:00:57;17.03;;;9.63;;
239;SDS011;104;53.590;10.004;2022-09-09T08:03:28;17.70;;;14.10;;
239;SDS011;104;53.590;10.004;2022-09-09T08:05:59;13.87;;;10.17;;
239;SDS011;104;53.590;10.004;2022-09-09T08:08:27;16.00;;;9.60;;
239;SDS011;104;53.590;10.004;2022-09-09T08:11:00;14.77;;;11.03;;
239;SDS011;104;53.590;10.004;2022-09-09T08:13:28;12.30;;;9.03;;
239;SDS011;104;53.590;10.004;2022-09-09T08:16:02;10.90;;;8.83;;
239;SDS011;104;53.590;10.004;2022-09-09T08:18:31;15.40;;;9.97;;
239;SDS011;104;53.590;10.004;2022-09-09T08:21:04;11.90;;;10.00;;
239;SDS011;104;53.590;10.004;2022-09-09T08:23:31;15.00;;;9.70;;
239;SDS011;104;53.590;10.004;2022-09-09T08:26:03;13.63;;;9.50;;
239;SDS011;104;53.590;10.004;2022-09-09T08:28:30;16.23;;;9.57;;
239;SDS011;104;53.590;10.004;2022-09-09T08:31:04;11.70;;;8.70;;
239;SDS011;104;53.590;10.004;2022-09-09T08:33:33;9.30;;;8.30;;
239;SDS011;104;53.590;10.004;2022-09-09T08:36:02;10.33;;;8.80;;
239;SDS011;104;53.590;10.004;2022-09-09T08:38:29;7.97;;;7.50;;
239;SDS011;104;53.590;10.004;2022-09-09T08:40:59;7.80;;;7.40;;
239;SDS011;104;53.590;10.004;2022-09-09T08:43:29;13.47;;;8.37;;
239;SDS011;104;53.590;10.004;2022-09-09T08:45:59;9.70;;;7.93;;
239;SDS011;104;53.590;10.004;2022-09-09T08:48:36;11.77;;;7.53;;
239;SDS011;104;53.590;10.004;2022-09-09T08:51:07;8.40;;;7.40;;
239;SDS011;104;53.590;10.004;2022-09-09T08:53:36;8.57;;;7.70;;
239;SDS011;104;53.590;10.004;2022-09-09T08:56:08;9.00;;;8.00;;
239;SDS011;104;53.590;10.004;2022-09-09T08:58:39;11.40;;;8.67;;
239;SDS011;104;53.590;10.004;2022-09-09T09:01:17;8.40;;;7.70;;
239;SDS011;104;53.590;10.004;2022-09-09T09:03:51;10.70;;;8.30;;
239;SDS011;104;53.590;10.004;2022-09-09T09:06:24;9.70;;;7.27;;
239;SDS011;104;53.590;10.004;2022-09-09T09:08:56;11.27;;;6.90;;
239;SDS011;104;53.590;10.004;2022-09-09T09:11:27;11.97;;;7.20;;
239;SDS011;104;53.590;10.004;2022-09-09T09:13:54;7.43;;;7.00;;
239;SDS011;104;53.590;10.004;2022-09-09T09:16:26;12.80;;;6.30;;
239;SDS011;104;53.590;10.004;2022-09-09T09:18:55;7.00;;;5.93;;
239;SDS011;104;53.590;10.004;2022-09-09T09:21:25;8.23;;;6.13;;
239;SDS011;104;53.590;10.004;2022-09-09T09:23:55;7.63;;;6.40;;
239;SDS011;104;53.590;10.004;2022-09-09T09:26:23;7.67;;;6.57;;
239;SDS011;104;53.590;10.004;2022-09-09T09:28:52;7.63;;;6.40;;
239;SDS011;104;53.590;10.004;2022-09-09T09:31:22;9.67;;;6.50;;
239;SDS011;104;53.590;10.004;2022-09-09T09:33:52;9.40;;;6.80;;
239;SDS011;104;53.590;10.004;2022-09-09T09:36:22;11.30;;;9.90;;
239;SDS011;104;53.590;10.004;2022-09-09T09:38:54;6.20;;;5.77;;
239;SDS011;104;53.590;10.004;2022-09-09T09:41:28;14.17;;;8.17;;
239;SDS011;104;53.590;10.004;2022-09-09T09:43:56;8.93;;;6.13;;
239;SDS011;104;53.590;10.004;2022-09-09T09:46:24;8.10;;;5.70;;
239;SDS011;104;53.590;10.004;2022-09-09T09:48:57;18.70;;;5.90;;
239;SDS011;104;53.590;10.004;2022-09-09T09:51:26;10.63;;;6.10;;
239;SDS011;104;53.590;10.004;2022-09-09T09:54:01;8.20;;;5.83;;
239;SDS011;104;53.590;10.004;2022-09-09T09:56:30;7.27;;;5.10;;
239;SDS011;104;53.590;10.004;2022-09-09T09:58:58;11.03;;;6.30;;
239;SDS011;104;53.590;10.004;2022-09-09T10:01:26;9.20;;;5.93;;
239;SDS011;104;53.590;10.004;2022-09-09T10:03:57;10.23;;;5.10;;
239;SDS011;104;53.590;10.004;2022-09-09T10:06:34;6.73;;;4.70;;
239;SDS011;104;53.590;10.004;2022-09-09T10:09:03;7.20;;;5.33;;
239;SDS011;104;53.590;10.004;2022-09-09T10:11:37;6.43;;;5.27;;
239;SDS011;104;53.590;10.004;2022-09-09T10:14:10;6.10;;;4.80;;
239;SDS011;104;53.590;10.004;2022-09-09T10:16:43;5.23;;;4.87;;
239;SDS011;104;53.590;10.004;2022-09-09T10:19:13;4.97;;;4.73;;
239;SDS011;104;53.590;10.004;2022-09-09T10:21:47;11.97;;;4.00;;
239;SDS011;104;53.590;10.004;2022-09-09T10:24:22;4.23;;;3.97;;
239;SDS011;104;53.590;10.004;2022-09-09T10:26:54;5.80;;;4.23;;
239;SDS011;104;53.590;10.004;2022-09-09T10:29:32;7.10;;;4.23;;
239;SDS011;104;53.590;10.004;2022-09-09T10:32:06;7.03;;;3.73;;
239;SDS011;104;53.590;10.004;2022-09-09T10:34:45;7.67;;;4.23;;
239;SDS011;104;53.590;10.004;2022-09-09T10:37:20;3.77;;;3.60;;
239;SDS011;104;53.590;10.004;2022-09-09T10:39:52;6.23;;;4.03;;
239;SDS011;104;53.590;10.004;2022-09-09T10:42:23;6.40;;;5.63;;
239;SDS011;104;53.590;10.004;2022-09-09T10:44:57;4.60;;;4.30;;
239;SDS011;104;53.590;10.004;2022-09-09T10:47:37;8.70;;;4.70;;
239;SDS011;104;53.590;10.004;2022-09-09T10:50:11;8.17;;;3.97;;
239;SDS011;104;53.590;10.004;2022-09-09T10:52:43;4.57;;;3.87;;
239;SDS011;104;53.590;10.004;2022-09-09T10:55:18;4.60;;;4.30;;
239;SDS011;104;53.590;10.004;2022-09-09T10:57:46;4.13;;;3.90;;
239;SDS011;104;53.590;10.004;2022-09-09T11:00:15;12.43;;;4.30;;
239;SDS011;104;53.590;10.004;2022-09-09T11:02:44;7.50;;;4.20;;
239;SDS011;104;53.590;10.004;2022-09-09T11:05:14;6.13;;;3.63;;
239;SDS011;104;53.590;10.004;2022-09-09T11:07:47;3.80;;;3.60;;
239;SDS011;104;53.590;10.004;2022-09-09T11:10:17;5.87;;;4.03;;
239;SDS011;104;53.590;10.004;2022-09-09T11:12:49;15.67;;;3.60;;
239;SDS011;104;53.590;10.004;2022-09-09T11:15:20;7.13;;;4.40;;
239;SDS011;104;53.590;10.004;2022-09-09T11:17:48;4.00;;;3.90;;
239;SDS011;104;53.590;10.004;2022-09-09T11:20:17;9.03;;;4.53;;
239;SDS011;104;53.590;10.004;2022-09-09T11:22:47;3.93;;;3.50;;
239;SDS011;104;53.590;10.004;2022-09-09T11:25:16;4.53;;;3.50;;
239;SDS011;104;53.590;10.004;2022-09-09T11:27:50;3.90;;;3.07;;
239;SDS011;104;53.590;10.004;2022-09-09T11:30:21;5.53;;;3.20;;
239;SDS011;104;53.590;10.004;2022-09-09T11:35:34;6.30;;;4.60;;
239;SDS011;104;53.590;10.004;2022-09-09T11:38:14;3.50;;;3.33;;
239;SDS011;104;53.590;10.004;2022-09-09T11:40:43;3.97;;;3.20;;
239;SDS011;104;53.590;10.004;2022-09-09T11:43:11;5.40;;;3.10;;
239;SDS011;104;53.590;10.004;2022-09-09T11:45:39;3.73;;;3.10;;
239;SDS011;104;53.590;10.004;2022-09-09T11:48:21;3.10;;;2.90;;
239;SDS011;104;53.590;10.004;2022-09-09T11:50:57;3.83;;;3.00;;
239;SDS011;104;53.590;10.004;2022-09-09T11:53:26;3.20;;;3.00;;
239;SDS011;104;53.590;10.004;2022-09-09T11:56:04;5.87;;;3.67;;
239;SDS011;104;53.590;10.004;2022-09-09T11:58:34;5.60;;;4.53;;
239;SDS011;104;53.590;10.004;2022-09-09T12:01:12;15.13;;;3.90;;
239;SDS011;104;53.590;10.004;2022-09-09T12:03:41;5.30;;;3.33;;
239;SDS011;104;53.590;10.004;2022-09-09T12:06:13;6.00;;;3.87;;
239;SDS011;104;53.590;10.004;2022-09-09T12:08:43;6.83;;;3.53;;
239;SDS011;104;53.590;10.004;2022-09-09T12:11:11;8.90;;;3.90;;
239;SDS011;104;53.590;10.004;2022-09-09T12:13:38;3.70;;;3.50;;
239;SDS011;104;53.590;10.004;2022-09-09T12:18:49;5.00;;;3.33;;
239;SDS011;104;53.590;10.004;2022-09-09T12:21:18;5.07;;;3.63;;
239;SDS011;104;53.590;10.004;2022-09-09T12:23:50;5.77;;;3.40;;
239;SDS011;104;53.590;10.004;2022-09-09T12:26:22;3.53;;;3.33;;
239;SDS011;104;53.590;10.004;2022-09-09T12:28:52;4.97;;;3.33;;
239;SDS011;104;53.590;10.004;2022-09-09T12:31:22;4.70;;;3.00;;
239;SDS011;104;53.590;10.004;2022-09-09T12:33:51;4.67;;;3.57;;
239;SDS011;104;53.590;10.004;2022-09-09T12:36:19;5.33;;;3.40;;
239;SDS011;104;53.590;10.004;2022-09-09T12:38:49;12.93;;;3.60;;
239;SDS011;104;53.590;10.004;2022-09-09T12:41:21;4.33;;;3.90;;
239;SDS011;104;53.590;10.004;2022-09-09T12:43:49;10.73;;;3.60;;
239;SDS011;104;53.590;10.004;2022-09-09T12:46:20;3.80;;;3.40;;
239;SDS011;104;53.590;10.004;2022-09-09T12:48:51;8.33;;;3.87;;
239;SDS011;104;53.590;10.004;2022-09-09T12:51:24;3.50;;;3.30;;
239;SDS011;104;53.590;10.004;2022-09-09T12:53:53;6.67;;;3.70;;
239;SDS011;104;53.590;10.004;2022-09-09T12:56:21;5.20;;;3.80;;
239;SDS011;104;53.590;10.004;2022-09-09T12:58:52;8.70;;;4.13;;
239;SDS011;104;53.590;10.004;2022-09-09T13:01:21;7.13;;;3.87;;
239;SDS011;104;53.590;10.004;2022-09-09T13:03:49;5.60;;;3.70;;
239;SDS011;104;53.590;10.004;2022-09-09T13:06:20;5.80;;;3.50;;
239;SDS011;104;53.590;10.004;2022-09-09T13:08:56;3.83;;;3.40;;
239;SDS011;104;53.590;10.004;2022-09-09T13:11:27;4.53;;;3.20;;
239;SDS011;104;53.590;10.004;2022-09-09T13:13:56;4.07;;;3.70;;
239;SDS011;104;53.590;10.004;2022-09-09T13:16:25;14.77;;;3.87;;
239;SDS011;104;53.590;10.004;2022-09-09T13:18:57;6.63;;;4.03;;
239;SDS011;104;53.590;10.004;2022-09-09T13:21:31;6.37;;;3.80;;
239;SDS011;104;53.590;10.004;2022-09-09T13:23:59;6.20;;;3.67;;
239;SDS011;104;53.590;10.004;2022-09-09T13:26:29;9.90;;;3.63;;
239;SDS011;104;53.590;10.004;2022-09-09T13:29:07;7.60;;;3.90;;
239;SDS011;104;53.590;10.004;2022-09-09T13:31:36;4.80;;;3.60;;
239;SDS011;104;53.590;10.004;2022-09-09T13:34:10;4.30;;;3.43;;
239;SDS011;104;53.590;10.004;2022-09-09T13:36:38;6.83;;;4.10;;
239;SDS011;104;53.590;10.004;2022-09-09T13:39:12;5.87;;;3.40;;
239;SDS011;104;53.590;10.004;2022-09-09T13:41:43;5.37;;;3.20;;
239;SDS011;104;53.590;10.004;2022-09-09T13:44:16;3.13;;;2.90;;
239;SDS011;104;53.590;10.004;2022-09-09T13:46:44;2.70;;;2.50;;
239;SDS011;104;53.590;10.004;2022-09-09T13:49:21;6.73;;;2.97;;
239;SDS011;104;53.590;10.004;2022-09-09T13:51:50;6.10;;;2.90;;
239;SDS011;104;53.590;10.004;2022-09-09T13:54:19;3.80;;;2.80;;
239;SDS011;104;53.590;10.004;2022-09-09T13:56:50;6.93;;;2.80;;
239;SDS011;104;53.590;10.004;2022-09-09T13:59:20;7.70;;;3.00;;
239;SDS011;104;53.590;10.004;2022-09-09T14:01:49;6.47;;;2.77;;
239;SDS011;104;53.590;10.004;2022-09-09T14:04:17;3.43;;;2.90;;
239;SDS011;104;53.590;10.004;2022-09-09T14:06:46;5.33;;;2.60;;
239;SDS011;104;53.590;10.004;2022-09-09T14:09:15;4.30;;;2.57;;
239;SDS011;104;53.590;10.004;2022-09-09T14:11:42;5.87;;;2.93;;
239;SDS011;104;53.590;10.004;2022-09-09T14:14:12;10.87;;;3.03;;
239;SDS011;104;53.590;10.004;2022-09-09T14:16:39;9.83;;;3.20;;
239;SDS011;104;53.590;10.004;2022-09-09T14:19:07;15.00;;;3.40;;
239;SDS011;104;53.590;10.004;2022-09-09T14:21:34;20.10;;;3.20;;
239;SDS011;104;53.590;10.004;2022-09-09T14:24:02;6.70;;;2.53;;
239;SDS011;104;53.590;10.004;2022-09-09T14:26:29;26.07;;;3.20;;
239;SDS011;104;53.590;10.004;2022-09-09T14:28:57;3.83;;;3.03;;
239;SDS011;104;53.590;10.004;2022-09-09T14:31:25;3.73;;;2.77;;
239;SDS011;104;53.590;10.004;2022-09-09T14:33:53;7.13;;;3.07;;
239;SDS011;104;53.590;10.004;2022-09-09T14:36:20;6.60;;;2.57;;
239;SDS011;104;53.590;10.004;2022-09-09T14:38:47;6.73;;;2.97;;
239;SDS011;104;53.590;10.004;2022-09-09T14:41:16;11.10;;;2.77;;
239;SDS011;104;53.590;10.004;2022-09-09T14:43:43;5.53;;;3.00;;
239;SDS011;104;53.590;10.004;2022-09-09T14:46:12;11.27;;;3.00;;
239;SDS011;104;53.590;10.004;2022-09-09T14:48:43;3.83;;;3.00;;
239;SDS011;104;53.590;10.004;2022-09-09T14:51:14;3.77;;;2.70;;
239;SDS011;104;53.590;10.004;2022-09-09T14:53:42;3.90;;;3.00;;
239;SDS011;104;53.590;10.004;2022-09-09T14:56:10;3.57;;;2.67;;
239;SDS011;104;53.590;10.004;2022-09-09T14:58:37;6.63;;;2.93;;
239;SDS011;104;53.590;10.004;2022-09-09T15:01:05;5.40;;;2.80;;
239;SDS011;104;53.590;10.004;2022-09-09T15:03:32;11.40;;;3.00;;
239;SDS011;104;53.590;10.004;2022-09-09T15:06:05;10.77;;;3.00;;
239;SDS011;104;53.590;10.004;2022-09-09T15:08:33;9.87;;;2.70;;
239;SDS011;104;53.590;10.004;2022-09-09T15:11:02;14.13;;;3.17;;
239;SDS011;104;53.590;10.004;2022-09-09T15:13:30;9.63;;;2.90;;
239;SDS011;104;53.590;10.004;2022-09-09T15:16:03;9.57;;;4.47;;
239;SDS011;104;53.590;10.004;2022-09-09T15:18:30;7.10;;;3.30;;
239;SDS011;104;53.590;10.004;2022-09-09T15:20:58;5.10;;;2.70;;
239;SDS011;104;53.590;10.004;2022-09-09T15:23:27;3.23;;;3.03;;
239;SDS011;104;53.590;10.004;2022-09-09T15:25:55;6.53;;;2.90;;
239;SDS011;104;53.590;10.004;2022-09-09T15:28:23;10.50;;;3.53;;
239;SDS011;104;53.590;10.004;2022-09-09T15:30:50;8.57;;;3.20;;
239;SDS011;104;53.590;10.004;2022-09-09T15:33:18;6.50;;;4.80;;
239;SDS011;104;53.590;10.004;2022-09-09T15:35:45;10.33;;;6.03;;
239;SDS011;104;53.590;10.004;2022-09-09T15:38:14;9.30;;;4.40;;